« Back
NWS Peachtree City, Ga » Text Product » CSG Terminal Aerodrome Forecast


Printer-friendly Version
Current Version              Previous Versions:   1  2  3  4  5  6  7  8  9  

Terminal Aerodrome Forecast

319
FTUS42 KFFC 021120
TAFCSG
TAF
KCSG 021120Z 0212/0312 26005KT P6SM SCT040 BKN250
     FM021400 27008KT P6SM BKN050
     FM021600 25008KT P6SM VCSH BKN050
      TEMPO 0218/0222 VRB15G25KT 6SM TSRA BKN035CB
     FM030000 24006KT P6SM BKN100
     FM030900 26006KT P6SM BKN015=



USA.gov is the U.S. government's official web portal to all federal, state and local government web resources and services.